Weichang, China
Current Conditions -  °F | °C
As of 6:00 PM on Saturday 25 Oct 2014 (Local Time) from ZBAA Reporting Station
Haze Haze  
Wind Chill: 15°   Ceiling: Unl
Heat Index: 15°   Visibility: 0.87mi
Dew Point: 13°   Wind: 2mph
Humidity: 88%   Direction: NA
Pressure: 29.85"   Gusts: NA
Location:  41.93°N, 117.75°E
Report Text: ZBAA 251000Z VRB01MPS 1400 R01/1500U R36R/1700N R36L/1900NBRNSC 15/13 Q1011 BECMG TL1040 1500
Loading
Personal Weather Stations






























Interactive Weather Map
Tropical Storm Tracking
New forecast layout! Learn more

10-Day Weather Forecast

Advertisements
Track Severe Weather on mobile